Terminal Aerodrome Forecast
Issued by NWS Grand Forks, ND

Home | Current Version | Previous Version | Graphics & Text | Print | Product List | Glossary On
Versions: 1 2 3 4 5 6 7 8 9 10 11 12 13 14 15 16 17
000
FTUS43 KFGF 191735 AAA
TAFFAR
TAF AMD
KFAR 191735Z 1918/2018 18012KT P6SM OVC080
     FM200000 13007KT P6SM BKN090
     FM200100 13006KT P6SM SCT090
     FM201200 01004KT P6SM SCT060
     FM201500 09004KT P6SM SCT150=

USA.gov is the U.S. government's official web portal to all federal, state and local government web resources and services.